createdAt,value
2023-01-13T00:03:33.569Z,100.00
2023-01-13T00:07:35.388Z,100.00
2023-01-13T00:11:37.144Z,100.00
2023-01-13T00:15:38.849Z,100.00
2023-01-13T00:19:40.541Z,100.00
2023-01-13T00:23:43.062Z,100.00
2023-01-13T00:27:44.790Z,100.00
2023-01-13T00:31:46.528Z,100.00
2023-01-13T00:36:02.173Z,100.00
2023-01-13T00:40:05.009Z,100.00
2023-01-13T00:44:06.692Z,100.00
2023-01-13T00:48:08.571Z,100.00
2023-01-13T00:52:11.030Z,100.00
2023-01-13T00:56:27.329Z,100.00
2023-01-13T01:00:36.289Z,100.00
2023-01-13T01:04:38.194Z,100.00
2023-01-13T01:08:40.618Z,100.00
2023-01-13T01:12:42.320Z,100.00
2023-01-13T01:16:44.759Z,100.00
2023-01-13T01:20:46.449Z,100.00
2023-01-13T01:24:48.243Z,100.00
2023-01-13T01:28:50.405Z,100.00
2023-01-13T01:32:52.168Z,100.00
2023-01-13T01:36:53.873Z,100.00
2023-01-13T01:40:56.114Z,100.00
2023-01-13T01:45:24.897Z,100.00
2023-01-13T01:49:32.669Z,100.00
2023-01-13T01:53:34.420Z,100.00
2023-01-13T01:57:39.037Z,100.00
2023-01-13T02:01:42.534Z,100.00
2023-01-13T02:05:44.426Z,100.00
2023-01-13T02:09:46.386Z,100.00
2023-01-13T02:13:48.214Z,100.00
2023-01-13T02:18:38.129Z,100.00
2023-01-13T02:23:06.489Z,100.00
2023-01-13T02:27:20.276Z,100.00
2023-01-13T02:31:41.445Z,100.00
2023-01-13T02:35:59.834Z,100.00
2023-01-13T02:40:13.382Z,100.00
2023-01-13T02:44:20.812Z,100.00
2023-01-13T02:48:24.642Z,100.00
2023-01-13T02:52:33.372Z,100.00
2023-01-13T02:56:40.289Z,100.00
2023-01-13T03:00:43.384Z,100.00
2023-01-13T03:04:56.746Z,100.00
2023-01-13T03:09:15.184Z,100.00
2023-01-13T03:13:26.841Z,100.00
2023-01-13T03:17:54.324Z,100.00
2023-01-13T03:22:22.379Z,100.00
2023-01-13T03:26:32.672Z,100.00
2023-01-13T03:30:48.533Z,100.00
2023-01-13T03:34:57.154Z,100.00
2023-01-13T03:39:05.052Z,100.00
2023-01-13T03:43:33.407Z,100.00
2023-01-13T03:47:41.356Z,100.00
2023-01-13T03:51:47.988Z,100.00
2023-01-13T03:55:58.572Z,100.00
2023-01-13T04:00:04.178Z,100.00
2023-01-13T04:04:21.260Z,100.00
2023-01-13T04:08:27.084Z,100.00
2023-01-13T04:13:04.073Z,100.00
2023-01-13T04:17:05.811Z,100.00
2023-01-13T04:21:08.152Z,100.00
2023-01-13T04:25:10.258Z,100.00
2023-01-13T04:29:13.068Z,100.00
2023-01-13T04:33:17.143Z,100.00
2023-01-13T04:37:18.878Z,100.00
2023-01-13T04:41:20.627Z,100.00
2023-01-13T04:45:22.311Z,100.00
2023-01-13T04:49:23.869Z,100.00
2023-01-13T04:53:25.461Z,100.00
2023-01-13T04:57:27.119Z,100.00
2023-01-13T05:01:28.824Z,100.00
2023-01-13T05:05:30.676Z,100.00
2023-01-13T05:09:32.225Z,100.00
2023-01-13T05:13:52.457Z,100.00
2023-01-13T05:17:54.126Z,100.00
2023-01-13T05:22:14.834Z,100.00
2023-01-13T05:26:16.395Z,100.00
2023-01-13T05:30:19.146Z,100.00
2023-01-13T05:34:25.426Z,100.00
2023-01-13T05:38:27.170Z,100.00
2023-01-13T05:42:51.042Z,100.00
2023-01-13T05:46:52.665Z,100.00
2023-01-13T05:51:04.517Z,100.00
2023-01-13T05:55:06.882Z,100.00
2023-01-13T05:59:08.545Z,100.00
2023-01-13T06:03:10.767Z,100.00
2023-01-13T06:07:12.681Z,100.00
2023-01-13T06:11:14.283Z,100.00
2023-01-13T06:15:15.854Z,100.00
2023-01-13T06:19:17.646Z,100.00
2023-01-13T06:23:19.265Z,100.00
2023-01-13T06:27:22.023Z,100.00
2023-01-13T06:31:24.762Z,100.00
2023-01-13T06:35:32.398Z,100.00
2023-01-13T06:39:36.001Z,100.00
2023-01-13T06:43:39.024Z,100.00
2023-01-13T06:47:42.141Z,100.00
2023-01-13T06:51:45.153Z,100.00
2023-01-13T06:55:50.552Z,100.00
2023-01-13T06:59:53.580Z,100.00
2023-01-13T07:03:55.139Z,100.00
2023-01-13T07:07:59.212Z,100.00
2023-01-13T07:12:00.816Z,100.00
2023-01-13T07:16:08.157Z,100.00
2023-01-13T07:20:11.861Z,100.00
2023-01-13T07:24:17.999Z,100.00
2023-01-13T07:28:20.438Z,100.00
2023-01-13T07:32:22.446Z,100.00
2023-01-13T07:36:23.983Z,100.00
2023-01-13T07:40:26.131Z,100.00
2023-01-13T07:44:28.527Z,100.00
2023-01-13T07:48:34.491Z,100.00
2023-01-13T07:52:37.343Z,100.00
2023-01-13T07:56:38.780Z,100.00
2023-01-13T08:00:40.448Z,100.00
2023-01-13T08:04:45.447Z,100.00
2023-01-13T08:08:47.157Z,100.00
2023-01-13T08:13:11.218Z,100.00
2023-01-13T08:17:13.169Z,100.00
2023-01-13T08:21:16.121Z,100.00
2023-01-13T08:25:18.021Z,100.00
2023-01-13T08:29:19.712Z,100.00
2023-01-13T08:33:23.602Z,100.00
2023-01-13T08:37:28.573Z,100.00
2023-01-13T08:41:50.388Z,100.00
2023-01-13T08:46:00.592Z,100.00
2023-01-13T08:50:06.242Z,100.00
2023-01-13T08:54:08.560Z,100.00
2023-01-13T08:58:15.559Z,100.00
2023-01-13T09:02:23.403Z,100.00
2023-01-13T09:06:25.312Z,100.00
2023-01-13T09:10:34.117Z,100.00
2023-01-13T09:14:38.011Z,100.00
2023-01-13T09:18:41.727Z,100.00
2023-01-13T09:22:44.324Z,100.00
2023-01-13T09:26:46.279Z,100.00
2023-01-13T09:30:48.071Z,100.00
2023-01-13T09:35:02.333Z,100.00
2023-01-13T09:39:04.398Z,100.00
2023-01-13T09:43:39.100Z,100.00
2023-01-13T09:47:48.635Z,100.00
2023-01-13T09:52:10.556Z,100.00
2023-01-13T09:56:13.304Z,100.00
2023-01-13T10:00:28.901Z,100.00
2023-01-13T10:04:30.745Z,100.00
2023-01-13T10:08:39.030Z,100.00
2023-01-13T10:12:59.894Z,100.00
2023-01-13T10:17:04.382Z,100.00
2023-01-13T10:21:26.937Z,100.00
2023-01-13T10:25:42.229Z,100.00
2023-01-13T10:29:43.883Z,100.00
2023-01-13T10:33:47.065Z,100.00
2023-01-13T10:37:57.523Z,100.00
2023-01-13T10:42:04.232Z,100.00
2023-01-13T10:46:10.994Z,100.00
2023-01-13T10:50:14.411Z,100.00
2023-01-13T10:54:24.116Z,100.00
2023-01-13T10:58:27.812Z,99.74
2023-01-13T11:02:33.121Z,100.00
2023-01-13T11:06:36.077Z,95.99
2023-01-13T11:10:47.033Z,92.54
2023-01-13T11:14:50.923Z,91.17
2023-01-13T11:19:13.013Z,92.02
2023-01-13T11:23:22.861Z,95.13
2023-01-13T11:27:43.563Z,86.74
2023-01-13T11:31:58.845Z,88.99
2023-01-13T11:36:21.400Z,84.19
2023-01-13T11:40:35.050Z,83.91
2023-01-13T11:44:50.054Z,79.76
2023-01-13T11:48:56.266Z,74.92
2023-01-13T11:53:17.048Z,76.43
2023-01-13T11:57:39.059Z,79.66
2023-01-13T12:02:11.101Z,77.82
2023-01-13T12:06:39.081Z,73.20
2023-01-13T12:11:07.058Z,76.29
2023-01-13T12:15:21.123Z,74.22
2023-01-13T12:19:29.822Z,73.04
2023-01-13T12:23:46.548Z,69.09
2023-01-13T12:27:56.216Z,69.14
2023-01-13T12:32:03.123Z,69.23
2023-01-13T12:36:25.066Z,69.29
2023-01-13T12:41:09.909Z,67.51
2023-01-13T12:45:11.471Z,69.81
2023-01-13T12:49:26.067Z,67.68
2023-01-13T12:53:36.257Z,68.35
2023-01-13T12:57:39.628Z,66.85
2023-01-13T13:01:44.308Z,66.00
2023-01-13T13:06:08.037Z,66.18
2023-01-13T13:10:19.023Z,64.41
2023-01-13T13:14:37.003Z,65.21
2023-01-13T13:18:38.766Z,68.22
2023-01-13T13:22:45.065Z,69.11
2023-01-13T13:26:46.943Z,71.90
2023-01-13T13:31:11.895Z,72.63
2023-01-13T13:35:21.818Z,73.98
2023-01-13T13:39:47.039Z,73.76
2023-01-13T13:44:07.600Z,71.52
2023-01-13T13:48:25.048Z,71.49
2023-01-13T13:52:40.022Z,69.81
2023-01-13T13:56:45.624Z,68.00
2023-01-13T14:00:49.311Z,68.91
2023-01-13T14:04:50.911Z,71.68
2023-01-13T14:08:53.870Z,72.44
2023-01-13T14:12:56.983Z,71.77
2023-01-13T14:16:58.813Z,73.43
2023-01-13T14:21:18.842Z,73.94
2023-01-13T14:25:46.859Z,74.52
2023-01-13T14:30:00.796Z,75.87
2023-01-13T14:34:31.084Z,76.46
2023-01-13T14:38:27.355Z,77.44
2023-01-13T14:42:29.822Z,79.07
2023-01-13T14:46:43.176Z,79.85
2023-01-13T14:50:46.783Z,80.85
2023-01-13T14:54:54.083Z,80.64
2023-01-13T14:58:55.953Z,81.27
2023-01-13T15:02:58.203Z,83.08
2023-01-13T15:07:01.951Z,83.98
2023-01-13T15:11:18.904Z,84.42
2023-01-13T15:15:25.942Z,85.43
2023-01-13T15:19:27.468Z,86.06
2023-01-13T15:23:29.935Z,86.49
2023-01-13T15:27:31.499Z,87.04
2023-01-13T15:31:33.081Z,89.11
2023-01-13T15:35:37.972Z,89.04
2023-01-13T15:39:39.764Z,89.25
2023-01-13T15:44:01.948Z,89.14
2023-01-13T15:48:03.936Z,89.59
2023-01-13T15:52:20.022Z,89.42
2023-01-13T15:56:26.620Z,89.79
2023-01-13T16:00:34.165Z,90.47
2023-01-13T16:04:35.843Z,91.72
2023-01-13T16:08:38.244Z,91.95
2023-01-13T16:12:40.278Z,92.17
2023-01-13T16:16:41.876Z,94.11
2023-01-13T16:20:44.063Z,95.70
2023-01-13T16:24:46.037Z,94.88
2023-01-13T16:28:52.983Z,95.11
2023-01-13T16:32:57.140Z,94.33
2023-01-13T16:36:58.696Z,93.02
2023-01-13T16:41:00.345Z,91.74
2023-01-13T16:45:08.394Z,89.73
2023-01-13T16:49:13.071Z,89.82
2023-01-13T16:53:14.696Z,89.50
2023-01-13T16:57:17.331Z,89.14
2023-01-13T17:01:22.274Z,89.01
2023-01-13T17:05:23.902Z,88.77
2023-01-13T17:09:27.432Z,89.51
2023-01-13T17:13:32.264Z,90.30
2023-01-13T17:17:33.903Z,91.10
2023-01-13T17:21:35.481Z,91.58
2023-01-13T17:25:37.336Z,91.58
2023-01-13T17:29:39.057Z,91.45
2023-01-13T17:33:40.692Z,91.14
2023-01-13T17:37:42.359Z,91.12
2023-01-13T17:41:45.740Z,90.88
2023-01-13T17:45:48.336Z,90.93
2023-01-13T17:49:49.857Z,90.63
2023-01-13T17:53:53.912Z,90.88
2023-01-13T17:57:55.541Z,90.62
2023-01-13T18:01:57.331Z,90.33
2023-01-13T18:06:03.959Z,90.29
2023-01-13T18:10:06.220Z,89.86
2023-01-13T18:14:09.494Z,90.53
2023-01-13T18:18:11.055Z,89.35
2023-01-13T18:22:35.632Z,89.13
2023-01-13T18:26:55.760Z,88.81
2023-01-13T18:30:57.583Z,88.43
2023-01-13T18:35:09.120Z,88.28
2023-01-13T18:39:11.622Z,88.09
2023-01-13T18:43:17.008Z,88.00
2023-01-13T18:47:19.516Z,88.35
2023-01-13T18:51:21.082Z,88.19
2023-01-13T18:55:24.544Z,88.60
2023-01-13T18:59:28.190Z,89.05
2023-01-13T19:03:31.218Z,89.11
2023-01-13T19:07:35.613Z,89.79
2023-01-13T19:11:37.540Z,90.02
2023-01-13T19:15:39.135Z,90.86
2023-01-13T19:19:43.923Z,90.87
2023-01-13T19:23:45.904Z,90.79
2023-01-13T19:27:47.479Z,90.65
2023-01-13T19:31:49.264Z,90.78
2023-01-13T19:36:07.362Z,90.13
2023-01-13T19:40:10.409Z,90.40
2023-01-13T19:44:31.122Z,90.18
2023-01-13T19:48:32.947Z,90.37
2023-01-13T19:52:35.168Z,90.63
2023-01-13T19:56:37.929Z,91.06
2023-01-13T20:00:47.058Z,91.26
2023-01-13T20:04:49.090Z,91.20
2023-01-13T20:08:51.105Z,91.34
2023-01-13T20:12:52.983Z,91.18
2023-01-13T20:16:54.807Z,90.97
2023-01-13T20:20:57.967Z,91.47
2023-01-13T20:24:59.506Z,92.04
2023-01-13T20:29:01.097Z,91.84
2023-01-13T20:33:03.731Z,92.28
2023-01-13T20:37:05.492Z,92.79
2023-01-13T20:41:25.976Z,93.60
2023-01-13T20:45:28.945Z,93.43
2023-01-13T20:49:31.624Z,93.79
2023-01-13T20:53:33.201Z,93.74
2023-01-13T20:57:35.135Z,93.73
2023-01-13T21:01:37.845Z,94.17
2023-01-13T21:05:39.588Z,94.53
2023-01-13T21:09:43.204Z,94.50
2023-01-13T21:14:04.054Z,95.24
2023-01-13T21:18:24.578Z,96.07
2023-01-13T21:22:26.798Z,96.02
2023-01-13T21:26:28.463Z,95.13
2023-01-13T21:30:30.122Z,94.56
2023-01-13T21:34:33.993Z,94.71
2023-01-13T21:38:36.181Z,94.87
2023-01-13T21:42:56.562Z,94.90
2023-01-13T21:47:19.891Z,94.51
2023-01-13T21:51:21.525Z,94.64
2023-01-13T21:55:28.609Z,94.04
2023-01-13T21:59:30.636Z,96.74
2023-01-13T22:03:52.271Z,98.10
2023-01-13T22:07:53.864Z,98.46
2023-01-13T22:11:55.448Z,98.82
2023-01-13T22:16:04.526Z,98.97
2023-01-13T22:20:06.576Z,99.55
2023-01-13T22:24:08.523Z,99.61
2023-01-13T22:28:14.586Z,99.69
2023-01-13T22:32:17.246Z,99.20
2023-01-13T22:36:19.904Z,99.06
2023-01-13T22:40:21.454Z,99.03
2023-01-13T22:44:23.258Z,99.04
2023-01-13T22:48:24.903Z,98.66
2023-01-13T22:52:28.543Z,98.40
2023-01-13T22:56:30.231Z,98.79
2023-01-13T23:00:32.339Z,98.44
2023-01-13T23:04:34.072Z,99.66
2023-01-13T23:08:37.913Z,99.41
2023-01-13T23:12:41.285Z,99.01
2023-01-13T23:16:42.931Z,99.08
2023-01-13T23:20:44.507Z,99.11
2023-01-13T23:24:46.120Z,98.99
2023-01-13T23:28:47.724Z,99.09
2023-01-13T23:32:49.263Z,98.99
2023-01-13T23:36:50.863Z,98.71
2023-01-13T23:40:52.651Z,98.87
2023-01-13T23:44:54.190Z,98.33
2023-01-13T23:48:55.962Z,98.22
2023-01-13T23:52:57.630Z,98.47
2023-01-13T23:57:00.329Z,98.07
